sensor_id;sensor_type;location;lat;lon;timestamp;temperature;humidity
8188;DHT22;4135;49.184;9.722;2022-11-15T00:02:06;18.40;54.00
8188;DHT22;4135;49.184;9.722;2022-11-15T00:04:36;18.30;54.50
8188;DHT22;4135;49.184;9.722;2022-11-15T00:07:05;18.30;53.90
8188;DHT22;4135;49.184;9.722;2022-11-15T00:09:35;18.20;53.70
8188;DHT22;4135;49.184;9.722;2022-11-15T00:12:04;18.20;53.70
8188;DHT22;4135;49.184;9.722;2022-11-15T00:14:34;18.20;53.70
8188;DHT22;4135;49.184;9.722;2022-11-15T00:17:03;18.20;53.70
8188;DHT22;4135;49.184;9.722;2022-11-15T00:19:33;18.20;53.70
8188;DHT22;4135;49.184;9.722;2022-11-15T00:22:02;18.20;53.70
8188;DHT22;4135;49.184;9.722;2022-11-15T00:24:32;18.20;53.60
8188;DHT22;4135;49.184;9.722;2022-11-15T00:27:01;18.30;53.70
8188;DHT22;4135;49.184;9.722;2022-11-15T00:29:31;18.20;53.60
8188;DHT22;4135;49.184;9.722;2022-11-15T00:32:00;18.20;53.60
8188;DHT22;4135;49.184;9.722;2022-11-15T00:34:30;18.20;53.60
8188;DHT22;4135;49.184;9.722;2022-11-15T00:37:00;18.20;53.60
8188;DHT22;4135;49.184;9.722;2022-11-15T00:39:29;18.20;53.60
8188;DHT22;4135;49.184;9.722;2022-11-15T00:41:59;18.20;53.50
8188;DHT22;4135;49.184;9.722;2022-11-15T00:44:28;18.20;53.60
8188;DHT22;4135;49.184;9.722;2022-11-15T00:46:58;18.20;53.50
8188;DHT22;4135;49.184;9.722;2022-11-15T00:49:27;18.20;53.50
8188;DHT22;4135;49.184;9.722;2022-11-15T00:51:57;18.20;53.50
8188;DHT22;4135;49.184;9.722;2022-11-15T00:54:26;18.20;53.50
8188;DHT22;4135;49.184;9.722;2022-11-15T00:56:56;18.20;53.50
8188;DHT22;4135;49.184;9.722;2022-11-15T00:59:25;18.20;53.50
8188;DHT22;4135;49.184;9.722;2022-11-15T01:01:55;18.20;53.40
8188;DHT22;4135;49.184;9.722;2022-11-15T01:04:24;18.20;53.50
8188;DHT22;4135;49.184;9.722;2022-11-15T01:06:54;18.20;53.40
8188;DHT22;4135;49.184;9.722;2022-11-15T01:09:23;18.20;53.40
8188;DHT22;4135;49.184;9.722;2022-11-15T01:11:53;18.20;53.40
8188;DHT22;4135;49.184;9.722;2022-11-15T01:14:22;18.10;53.30
8188;DHT22;4135;49.184;9.722;2022-11-15T01:16:52;18.20;53.40
8188;DHT22;4135;49.184;9.722;2022-11-15T01:19:21;18.20;53.40
8188;DHT22;4135;49.184;9.722;2022-11-15T01:21:51;18.10;53.30
8188;DHT22;4135;49.184;9.722;2022-11-15T01:24:21;18.20;53.40
8188;DHT22;4135;49.184;9.722;2022-11-15T01:26:50;18.20;53.40
8188;DHT22;4135;49.184;9.722;2022-11-15T01:29:20;18.10;53.90
8188;DHT22;4135;49.184;9.722;2022-11-15T01:31:49;18.10;53.20
8188;DHT22;4135;49.184;9.722;2022-11-15T01:34:19;18.10;53.30
8188;DHT22;4135;49.184;9.722;2022-11-15T01:36:49;18.10;53.30
8188;DHT22;4135;49.184;9.722;2022-11-15T01:39:18;18.10;53.30
8188;DHT22;4135;49.184;9.722;2022-11-15T01:41:48;18.10;53.20
8188;DHT22;4135;49.184;9.722;2022-11-15T01:44:41;18.10;53.20
8188;DHT22;4135;49.184;9.722;2022-11-15T01:47:19;18.10;53.20
8188;DHT22;4135;49.184;9.722;2022-11-15T01:52:25;18.10;53.20
8188;DHT22;4135;49.184;9.722;2022-11-15T01:57:36;18.10;53.20
8188;DHT22;4135;49.184;9.722;2022-11-15T02:00:07;18.10;53.20
8188;DHT22;4135;49.184;9.722;2022-11-15T02:02:37;18.10;53.20
8188;DHT22;4135;49.184;9.722;2022-11-15T02:05:07;18.10;53.20
8188;DHT22;4135;49.184;9.722;2022-11-15T02:07:37;18.10;53.20
8188;DHT22;4135;49.184;9.722;2022-11-15T02:10:13;18.10;53.20
8188;DHT22;4135;49.184;9.722;2022-11-15T02:12:42;18.10;53.20
8188;DHT22;4135;49.184;9.722;2022-11-15T02:15:13;18.10;53.20
8188;DHT22;4135;49.184;9.722;2022-11-15T02:17:47;18.10;53.20
8188;DHT22;4135;49.184;9.722;2022-11-15T02:26:30;18.10;53.20
8188;DHT22;4135;49.184;9.722;2022-11-15T02:29:14;18.00;53.00
8188;DHT22;4135;49.184;9.722;2022-11-15T02:31:58;18.00;53.00
8188;DHT22;4135;49.184;9.722;2022-11-15T02:35:09;18.00;53.00
8188;DHT22;4135;49.184;9.722;2022-11-15T02:37:59;18.00;53.00
8188;DHT22;4135;49.184;9.722;2022-11-15T02:43:25;18.00;53.00
8188;DHT22;4135;49.184;9.722;2022-11-15T02:46:18;18.00;53.00
8188;DHT22;4135;49.184;9.722;2022-11-15T02:48:50;18.00;53.00
8188;DHT22;4135;49.184;9.722;2022-11-15T02:51:20;18.00;53.00
8188;DHT22;4135;49.184;9.722;2022-11-15T02:53:50;18.00;53.00
8188;DHT22;4135;49.184;9.722;2022-11-15T02:56:20;18.00;53.00
8188;DHT22;4135;49.184;9.722;2022-11-15T03:01:50;18.00;53.00
8188;DHT22;4135;49.184;9.722;2022-11-15T03:04:49;18.00;53.00
8188;DHT22;4135;49.184;9.722;2022-11-15T03:07:32;18.00;53.00
8188;DHT22;4135;49.184;9.722;2022-11-15T03:13:37;18.00;53.00
8188;DHT22;4135;49.184;9.722;2022-11-15T03:16:21;18.00;52.90
8188;DHT22;4135;49.184;9.722;2022-11-15T03:19:04;18.00;52.90
8188;DHT22;4135;49.184;9.722;2022-11-15T03:21:36;18.00;53.50
8188;DHT22;4135;49.184;9.722;2022-11-15T03:24:07;18.00;52.90
8188;DHT22;4135;49.184;9.722;2022-11-15T03:26:38;18.00;52.90
8188;DHT22;4135;49.184;9.722;2022-11-15T03:29:15;17.90;52.80
8188;DHT22;4135;49.184;9.722;2022-11-15T03:31:54;17.90;52.80
8188;DHT22;4135;49.184;9.722;2022-11-15T03:34:40;17.90;52.80
8188;DHT22;4135;49.184;9.722;2022-11-15T03:37:14;17.90;52.80
8188;DHT22;4135;49.184;9.722;2022-11-15T03:39:44;17.90;52.80
8188;DHT22;4135;49.184;9.722;2022-11-15T03:45:01;17.90;52.80
8188;DHT22;4135;49.184;9.722;2022-11-15T03:47:36;17.90;52.80
8188;DHT22;4135;49.184;9.722;2022-11-15T03:50:11;17.90;52.80
8188;DHT22;4135;49.184;9.722;2022-11-15T03:52:44;17.90;52.70
8188;DHT22;4135;49.184;9.722;2022-11-15T03:55:17;17.90;52.80
8188;DHT22;4135;49.184;9.722;2022-11-15T03:57:52;17.90;52.70
8188;DHT22;4135;49.184;9.722;2022-11-15T04:00:22;17.90;52.70
8188;DHT22;4135;49.184;9.722;2022-11-15T04:02:52;17.90;52.70
8188;DHT22;4135;49.184;9.722;2022-11-15T04:05:22;17.90;52.70
8188;DHT22;4135;49.184;9.722;2022-11-15T04:07:51;17.90;52.80
8188;DHT22;4135;49.184;9.722;2022-11-15T04:10:21;17.90;52.70
8188;DHT22;4135;49.184;9.722;2022-11-15T04:12:50;17.90;52.70
8188;DHT22;4135;49.184;9.722;2022-11-15T04:15:22;17.90;52.70
8188;DHT22;4135;49.184;9.722;2022-11-15T04:17:54;17.90;52.70
8188;DHT22;4135;49.184;9.722;2022-11-15T04:20:29;17.90;52.70
8188;DHT22;4135;49.184;9.722;2022-11-15T04:23:19;17.90;52.70
8188;DHT22;4135;49.184;9.722;2022-11-15T04:26:14;20.00;54.50
8188;DHT22;4135;49.184;9.722;2022-11-15T04:28:44;17.90;52.70
8188;DHT22;4135;49.184;9.722;2022-11-15T04:31:32;17.80;52.60
8188;DHT22;4135;49.184;9.722;2022-11-15T04:34:02;17.90;52.70
8188;DHT22;4135;49.184;9.722;2022-11-15T04:36:31;17.80;52.60
8188;DHT22;4135;49.184;9.722;2022-11-15T04:39:19;17.80;52.60
8188;DHT22;4135;49.184;9.722;2022-11-15T04:41:49;17.80;52.60
8188;DHT22;4135;49.184;9.722;2022-11-15T04:44:18;17.80;52.60
8188;DHT22;4135;49.184;9.722;2022-11-15T04:46:48;17.80;52.70
8188;DHT22;4135;49.184;9.722;2022-11-15T04:49:17;17.80;52.70
8188;DHT22;4135;49.184;9.722;2022-11-15T04:51:47;17.80;52.70
8188;DHT22;4135;49.184;9.722;2022-11-15T04:54:17;17.80;52.60
8188;DHT22;4135;49.184;9.722;2022-11-15T04:56:46;17.80;52.70
8188;DHT22;4135;49.184;9.722;2022-11-15T04:59:16;17.80;52.60
8188;DHT22;4135;49.184;9.722;2022-11-15T05:01:45;17.80;53.20
8188;DHT22;4135;49.184;9.722;2022-11-15T05:04:15;17.80;53.20
8188;DHT22;4135;49.184;9.722;2022-11-15T05:06:51;17.80;52.60
8188;DHT22;4135;49.184;9.722;2022-11-15T05:09:21;17.80;52.60
8188;DHT22;4135;49.184;9.722;2022-11-15T05:11:51;17.80;52.60
8188;DHT22;4135;49.184;9.722;2022-11-15T05:14:20;17.80;52.60
8188;DHT22;4135;49.184;9.722;2022-11-15T05:16:50;17.80;52.60
8188;DHT22;4135;49.184;9.722;2022-11-15T05:19:19;17.80;52.60
8188;DHT22;4135;49.184;9.722;2022-11-15T05:21:49;17.80;52.70
8188;DHT22;4135;49.184;9.722;2022-11-15T05:24:18;17.80;52.60
8188;DHT22;4135;49.184;9.722;2022-11-15T05:26:48;18.80;53.40
8188;DHT22;4135;49.184;9.722;2022-11-15T05:29:17;17.80;52.60
8188;DHT22;4135;49.184;9.722;2022-11-15T05:31:47;17.80;52.50
8188;DHT22;4135;49.184;9.722;2022-11-15T05:34:16;17.80;52.50
8188;DHT22;4135;49.184;9.722;2022-11-15T05:36:47;17.80;52.50
8188;DHT22;4135;49.184;9.722;2022-11-15T05:39:17;17.80;52.70
8188;DHT22;4135;49.184;9.722;2022-11-15T05:41:51;17.80;52.70
8188;DHT22;4135;49.184;9.722;2022-11-15T05:44:23;17.80;52.70
8188;DHT22;4135;49.184;9.722;2022-11-15T05:46:53;17.80;52.70
8188;DHT22;4135;49.184;9.722;2022-11-15T05:49:28;17.80;52.70
8188;DHT22;4135;49.184;9.722;2022-11-15T05:51:59;17.80;52.70
8188;DHT22;4135;49.184;9.722;2022-11-15T05:54:31;17.80;53.00
8188;DHT22;4135;49.184;9.722;2022-11-15T05:57:01;17.80;53.20
8188;DHT22;4135;49.184;9.722;2022-11-15T05:59:32;17.80;53.40
8188;DHT22;4135;49.184;9.722;2022-11-15T06:02:02;17.80;53.40
8188;DHT22;4135;49.184;9.722;2022-11-15T06:04:31;17.80;53.50
8188;DHT22;4135;49.184;9.722;2022-11-15T06:07:01;17.80;53.50
8188;DHT22;4135;49.184;9.722;2022-11-15T06:09:30;17.90;53.60
8188;DHT22;4135;49.184;9.722;2022-11-15T06:12:00;17.90;53.70
8188;DHT22;4135;49.184;9.722;2022-11-15T06:14:30;17.90;54.70
8188;DHT22;4135;49.184;9.722;2022-11-15T06:16:59;17.90;54.80
8188;DHT22;4135;49.184;9.722;2022-11-15T06:19:29;17.90;54.80
8188;DHT22;4135;49.184;9.722;2022-11-15T06:22:02;17.90;54.60
8188;DHT22;4135;49.184;9.722;2022-11-15T06:24:31;17.90;54.40
8188;DHT22;4135;49.184;9.722;2022-11-15T06:27:01;17.90;54.30
8188;DHT22;4135;49.184;9.722;2022-11-15T06:29:30;17.90;54.20
8188;DHT22;4135;49.184;9.722;2022-11-15T06:32:00;17.90;54.10
8188;DHT22;4135;49.184;9.722;2022-11-15T06:34:29;17.90;54.00
8188;DHT22;4135;49.184;9.722;2022-11-15T06:36:59;17.90;54.60
8188;DHT22;4135;49.184;9.722;2022-11-15T06:39:28;17.90;54.90
8188;DHT22;4135;49.184;9.722;2022-11-15T06:41:58;17.90;55.00
8188;DHT22;4135;49.184;9.722;2022-11-15T06:44:27;18.00;55.40
8188;DHT22;4135;49.184;9.722;2022-11-15T06:46:57;18.90;56.30
8188;DHT22;4135;49.184;9.722;2022-11-15T06:49:26;18.00;55.50
8188;DHT22;4135;49.184;9.722;2022-11-15T06:51:56;18.00;55.60
8188;DHT22;4135;49.184;9.722;2022-11-15T06:54:25;18.00;55.60
8188;DHT22;4135;49.184;9.722;2022-11-15T06:56:55;18.00;55.80
8188;DHT22;4135;49.184;9.722;2022-11-15T06:59:24;18.00;55.60
8188;DHT22;4135;49.184;9.722;2022-11-15T07:01:54;18.00;55.70
8188;DHT22;4135;49.184;9.722;2022-11-15T07:04:23;18.00;55.70
8188;DHT22;4135;49.184;9.722;2022-11-15T07:06:53;18.10;55.80
8188;DHT22;4135;49.184;9.722;2022-11-15T07:09:22;18.20;55.70
8188;DHT22;4135;49.184;9.722;2022-11-15T07:11:52;18.30;55.60
8188;DHT22;4135;49.184;9.722;2022-11-15T07:14:21;18.60;55.30
8188;DHT22;4135;49.184;9.722;2022-11-15T07:16:51;17.30;53.70
8188;DHT22;4135;49.184;9.722;2022-11-15T07:19:20;19.20;54.50
8188;DHT22;4135;49.184;9.722;2022-11-15T07:21:50;19.50;54.00
8188;DHT22;4135;49.184;9.722;2022-11-15T07:24:19;19.80;53.50
8188;DHT22;4135;49.184;9.722;2022-11-15T07:26:49;19.90;53.20
8188;DHT22;4135;49.184;9.722;2022-11-15T07:29:18;19.90;53.00
8188;DHT22;4135;49.184;9.722;2022-11-15T07:31:49;19.50;53.10
8188;DHT22;4135;49.184;9.722;2022-11-15T07:34:19;19.30;53.50
8188;DHT22;4135;49.184;9.722;2022-11-15T07:36:49;19.20;54.30
8188;DHT22;4135;49.184;9.722;2022-11-15T07:39:18;19.20;53.90
8188;DHT22;4135;49.184;9.722;2022-11-15T07:41:48;19.30;53.60
8188;DHT22;4135;49.184;9.722;2022-11-15T07:44:18;19.30;53.40
8188;DHT22;4135;49.184;9.722;2022-11-15T07:46:48;19.20;53.50
8188;DHT22;4135;49.184;9.722;2022-11-15T07:49:17;19.10;53.70
8188;DHT22;4135;49.184;9.722;2022-11-15T07:51:47;19.00;54.40
8188;DHT22;4135;49.184;9.722;2022-11-15T07:54:16;18.90;53.80
8188;DHT22;4135;49.184;9.722;2022-11-15T07:56:46;18.90;53.90
8188;DHT22;4135;49.184;9.722;2022-11-15T07:59:15;18.80;54.00
8188;DHT22;4135;49.184;9.722;2022-11-15T08:01:45;18.80;54.10
8188;DHT22;4135;49.184;9.722;2022-11-15T08:04:14;18.70;54.10
8188;DHT22;4135;49.184;9.722;2022-11-15T08:06:44;18.70;54.10
8188;DHT22;4135;49.184;9.722;2022-11-15T08:09:13;18.70;54.10
8188;DHT22;4135;49.184;9.722;2022-11-15T08:11:43;18.70;54.10
8188;DHT22;4135;49.184;9.722;2022-11-15T08:14:12;18.70;54.20
8188;DHT22;4135;49.184;9.722;2022-11-15T08:16:42;18.70;54.20
8188;DHT22;4135;49.184;9.722;2022-11-15T08:19:11;18.70;54.20
8188;DHT22;4135;49.184;9.722;2022-11-15T08:21:41;18.70;54.20
8188;DHT22;4135;49.184;9.722;2022-11-15T08:24:11;18.70;54.20
8188;DHT22;4135;49.184;9.722;2022-11-15T08:26:40;18.80;54.30
8188;DHT22;4135;49.184;9.722;2022-11-15T08:29:10;19.00;54.40
8188;DHT22;4135;49.184;9.722;2022-11-15T08:31:39;18.90;54.30
8188;DHT22;4135;49.184;9.722;2022-11-15T08:34:09;18.80;54.20
8188;DHT22;4135;49.184;9.722;2022-11-15T08:36:38;18.80;54.20
8188;DHT22;4135;49.184;9.722;2022-11-15T08:39:10;18.80;54.20
8188;DHT22;4135;49.184;9.722;2022-11-15T08:41:41;18.90;54.20
8188;DHT22;4135;49.184;9.722;2022-11-15T08:44:10;18.90;54.20
8188;DHT22;4135;49.184;9.722;2022-11-15T08:46:40;18.90;54.20
8188;DHT22;4135;49.184;9.722;2022-11-15T08:49:09;18.90;54.20
8188;DHT22;4135;49.184;9.722;2022-11-15T08:51:39;19.00;54.30
8188;DHT22;4135;49.184;9.722;2022-11-15T08:54:08;19.00;54.30
8188;DHT22;4135;49.184;9.722;2022-11-15T08:56:38;19.00;54.20
8188;DHT22;4135;49.184;9.722;2022-11-15T08:59:07;19.10;54.20
8188;DHT22;4135;49.184;9.722;2022-11-15T09:01:37;19.10;54.20
8188;DHT22;4135;49.184;9.722;2022-11-15T09:04:06;19.20;54.20
8188;DHT22;4135;49.184;9.722;2022-11-15T09:06:36;19.20;54.10
8188;DHT22;4135;49.184;9.722;2022-11-15T09:09:06;19.20;54.10
8188;DHT22;4135;49.184;9.722;2022-11-15T09:11:35;19.30;54.10
8188;DHT22;4135;49.184;9.722;2022-11-15T09:14:05;19.30;54.10
8188;DHT22;4135;49.184;9.722;2022-11-15T09:16:34;19.30;54.10
8188;DHT22;4135;49.184;9.722;2022-11-15T09:19:04;19.30;54.00
8188;DHT22;4135;49.184;9.722;2022-11-15T09:21:33;19.40;54.10
8188;DHT22;4135;49.184;9.722;2022-11-15T09:24:03;19.30;54.00
8188;DHT22;4135;49.184;9.722;2022-11-15T09:26:33;19.40;54.10
8188;DHT22;4135;49.184;9.722;2022-11-15T09:29:03;19.40;54.00
8188;DHT22;4135;49.184;9.722;2022-11-15T09:31:32;19.50;54.00
8188;DHT22;4135;49.184;9.722;2022-11-15T09:34:02;19.50;54.00
8188;DHT22;4135;49.184;9.722;2022-11-15T09:36:31;19.50;54.00
8188;DHT22;4135;49.184;9.722;2022-11-15T09:39:01;19.50;53.90
8188;DHT22;4135;49.184;9.722;2022-11-15T09:44:47;19.60;54.10
8188;DHT22;4135;49.184;9.722;2022-11-15T09:50:10;19.60;54.20
8188;DHT22;4135;49.184;9.722;2022-11-15T09:52:43;19.60;54.20
8188;DHT22;4135;49.184;9.722;2022-11-15T09:55:15;19.60;54.30
8188;DHT22;4135;49.184;9.722;2022-11-15T09:58:16;19.60;54.20
8188;DHT22;4135;49.184;9.722;2022-11-15T10:00:48;19.60;54.20
8188;DHT22;4135;49.184;9.722;2022-11-15T10:03:34;19.60;54.20
8188;DHT22;4135;49.184;9.722;2022-11-15T10:06:05;19.60;54.20
8188;DHT22;4135;49.184;9.722;2022-11-15T10:08:50;19.60;54.10
8188;DHT22;4135;49.184;9.722;2022-11-15T10:11:28;19.70;54.20
8188;DHT22;4135;49.184;9.722;2022-11-15T10:14:19;19.60;54.10
8188;DHT22;4135;49.184;9.722;2022-11-15T10:16:53;19.60;54.10
8188;DHT22;4135;49.184;9.722;2022-11-15T10:19:34;19.60;54.10
8188;DHT22;4135;49.184;9.722;2022-11-15T10:25:14;19.60;54.10
8188;DHT22;4135;49.184;9.722;2022-11-15T10:30:31;19.60;54.00
8188;DHT22;4135;49.184;9.722;2022-11-15T10:41:29;19.70;54.00
8188;DHT22;4135;49.184;9.722;2022-11-15T10:46:31;19.70;53.90
8188;DHT22;4135;49.184;9.722;2022-11-15T10:49:34;19.70;53.90
8188;DHT22;4135;49.184;9.722;2022-11-15T10:54:46;19.70;53.80
8188;DHT22;4135;49.184;9.722;2022-11-15T10:57:19;19.70;53.80
8188;DHT22;4135;49.184;9.722;2022-11-15T10:59:54;19.70;53.90
8188;DHT22;4135;49.184;9.722;2022-11-15T11:02:38;19.70;53.80
8188;DHT22;4135;49.184;9.722;2022-11-15T11:05:28;19.70;53.80
8188;DHT22;4135;49.184;9.722;2022-11-15T11:08:04;19.70;53.80
8188;DHT22;4135;49.184;9.722;2022-11-15T11:10:34;19.70;53.80
8188;DHT22;4135;49.184;9.722;2022-11-15T11:13:22;19.80;53.90
8188;DHT22;4135;49.184;9.722;2022-11-15T11:16:01;19.70;53.90
8188;DHT22;4135;49.184;9.722;2022-11-15T11:18:38;19.70;53.80
8188;DHT22;4135;49.184;9.722;2022-11-15T11:21:18;19.70;53.80
8188;DHT22;4135;49.184;9.722;2022-11-15T11:27:19;19.70;53.90
8188;DHT22;4135;49.184;9.722;2022-11-15T11:30:14;19.70;53.90
8188;DHT22;4135;49.184;9.722;2022-11-15T11:36:17;19.70;53.90
8188;DHT22;4135;49.184;9.722;2022-11-15T11:42:01;19.60;53.80
8188;DHT22;4135;49.184;9.722;2022-11-15T11:47:33;19.70;53.80
8188;DHT22;4135;49.184;9.722;2022-11-15T11:50:19;19.70;53.90
8188;DHT22;4135;49.184;9.722;2022-11-15T11:53:11;19.60;53.80
8188;DHT22;4135;49.184;9.722;2022-11-15T11:55:47;19.60;53.80
8188;DHT22;4135;49.184;9.722;2022-11-15T11:58:26;19.70;53.80
8188;DHT22;4135;49.184;9.722;2022-11-15T12:01:17;19.60;53.80
8188;DHT22;4135;49.184;9.722;2022-11-15T12:03:57;19.60;53.80
8188;DHT22;4135;49.184;9.722;2022-11-15T12:06:37;19.60;53.70
8188;DHT22;4135;49.184;9.722;2022-11-15T12:09:17;19.60;53.70
8188;DHT22;4135;49.184;9.722;2022-11-15T12:12:10;19.60;53.70
8188;DHT22;4135;49.184;9.722;2022-11-15T12:17:32;19.70;53.70
8188;DHT22;4135;49.184;9.722;2022-11-15T12:20:04;19.70;53.70
8188;DHT22;4135;49.184;9.722;2022-11-15T12:23:12;19.70;53.70
8188;DHT22;4135;49.184;9.722;2022-11-15T12:25:46;19.70;53.70
8188;DHT22;4135;49.184;9.722;2022-11-15T12:28:32;19.70;53.60
8188;DHT22;4135;49.184;9.722;2022-11-15T12:33:49;19.70;53.50
8188;DHT22;4135;49.184;9.722;2022-11-15T12:41:39;19.80;53.50
8188;DHT22;4135;49.184;9.722;2022-11-15T12:44:12;19.80;53.40
8188;DHT22;4135;49.184;9.722;2022-11-15T12:52:08;19.80;53.50
8188;DHT22;4135;49.184;9.722;2022-11-15T13:02:43;19.80;53.70
8188;DHT22;4135;49.184;9.722;2022-11-15T13:10:37;19.70;53.60
8188;DHT22;4135;49.184;9.722;2022-11-15T13:13:08;19.80;53.60
8188;DHT22;4135;49.184;9.722;2022-11-15T13:15:59;19.80;53.60
8188;DHT22;4135;49.184;9.722;2022-11-15T13:18:39;19.80;53.50
8188;DHT22;4135;49.184;9.722;2022-11-15T13:21:21;19.80;53.50
8188;DHT22;4135;49.184;9.722;2022-11-15T13:24:12;19.80;54.10
8188;DHT22;4135;49.184;9.722;2022-11-15T13:26:43;19.80;53.50
8188;DHT22;4135;49.184;9.722;2022-11-15T13:29:17;19.80;53.50
8188;DHT22;4135;49.184;9.722;2022-11-15T13:31:48;19.80;53.50
8188;DHT22;4135;49.184;9.722;2022-11-15T13:34:29;19.80;53.50
8188;DHT22;4135;49.184;9.722;2022-11-15T13:37:00;19.80;53.60
8188;DHT22;4135;49.184;9.722;2022-11-15T13:39:34;19.80;53.60
8188;DHT22;4135;49.184;9.722;2022-11-15T13:42:14;19.80;53.60
8188;DHT22;4135;49.184;9.722;2022-11-15T13:44:58;19.80;53.60
8188;DHT22;4135;49.184;9.722;2022-11-15T13:47:29;19.70;53.50
8188;DHT22;4135;49.184;9.722;2022-11-15T13:50:00;19.70;53.50
8188;DHT22;4135;49.184;9.722;2022-11-15T13:52:36;19.70;53.60
8188;DHT22;4135;49.184;9.722;2022-11-15T13:55:20;19.70;53.60
8188;DHT22;4135;49.184;9.722;2022-11-15T13:57:58;19.70;53.60
8188;DHT22;4135;49.184;9.722;2022-11-15T14:00:36;19.70;53.60
8188;DHT22;4135;49.184;9.722;2022-11-15T14:08:36;19.70;53.60
8188;DHT22;4135;49.184;9.722;2022-11-15T14:11:17;19.70;53.60
8188;DHT22;4135;49.184;9.722;2022-11-15T14:16:45;19.60;53.50
8188;DHT22;4135;49.184;9.722;2022-11-15T14:22:11;19.70;53.60
8188;DHT22;4135;49.184;9.722;2022-11-15T14:24:47;19.70;53.70
8188;DHT22;4135;49.184;9.722;2022-11-15T14:27:22;19.60;53.50
8188;DHT22;4135;49.184;9.722;2022-11-15T14:29:52;19.70;53.60
8188;DHT22;4135;49.184;9.722;2022-11-15T14:32:25;19.60;53.60
8188;DHT22;4135;49.184;9.722;2022-11-15T14:35:00;19.60;53.60
8188;DHT22;4135;49.184;9.722;2022-11-15T14:37:31;19.60;53.60
8188;DHT22;4135;49.184;9.722;2022-11-15T14:40:05;19.60;53.60
8188;DHT22;4135;49.184;9.722;2022-11-15T14:42:35;19.60;53.60
8188;DHT22;4135;49.184;9.722;2022-11-15T14:45:12;19.60;53.60
8188;DHT22;4135;49.184;9.722;2022-11-15T14:47:43;19.60;53.60
8188;DHT22;4135;49.184;9.722;2022-11-15T14:50:18;19.60;53.60
8188;DHT22;4135;49.184;9.722;2022-11-15T14:52:48;19.60;53.60
8188;DHT22;4135;49.184;9.722;2022-11-15T14:55:24;19.60;53.60
8188;DHT22;4135;49.184;9.722;2022-11-15T14:57:55;19.60;53.60
8188;DHT22;4135;49.184;9.722;2022-11-15T15:00:24;19.60;53.60
8188;DHT22;4135;49.184;9.722;2022-11-15T15:02:54;19.50;53.50
8188;DHT22;4135;49.184;9.722;2022-11-15T15:05:32;19.50;53.50
8188;DHT22;4135;49.184;9.722;2022-11-15T15:08:02;19.50;53.50
8188;DHT22;4135;49.184;9.722;2022-11-15T15:10:35;19.50;53.50
8188;DHT22;4135;49.184;9.722;2022-11-15T15:13:05;19.50;53.50
8188;DHT22;4135;49.184;9.722;2022-11-15T15:15:37;19.50;53.50
8188;DHT22;4135;49.184;9.722;2022-11-15T15:18:06;19.50;53.50
8188;DHT22;4135;49.184;9.722;2022-11-15T15:20:39;19.50;53.50
8188;DHT22;4135;49.184;9.722;2022-11-15T15:23:15;19.50;53.50
8188;DHT22;4135;49.184;9.722;2022-11-15T15:25:46;19.50;53.60
8188;DHT22;4135;49.184;9.722;2022-11-15T15:28:17;19.50;53.50
8188;DHT22;4135;49.184;9.722;2022-11-15T15:30:46;19.50;53.60
8188;DHT22;4135;49.184;9.722;2022-11-15T15:33:16;19.50;53.60
8188;DHT22;4135;49.184;9.722;2022-11-15T15:35:45;19.40;53.50
8188;DHT22;4135;49.184;9.722;2022-11-15T15:38:15;19.50;53.60
8188;DHT22;4135;49.184;9.722;2022-11-15T15:40:45;19.50;53.60
8188;DHT22;4135;49.184;9.722;2022-11-15T15:43:14;19.40;53.60
8188;DHT22;4135;49.184;9.722;2022-11-15T15:45:44;19.40;53.70
8188;DHT22;4135;49.184;9.722;2022-11-15T15:48:16;19.40;53.60
8188;DHT22;4135;49.184;9.722;2022-11-15T15:50:45;19.30;53.40
8188;DHT22;4135;49.184;9.722;2022-11-15T15:53:15;19.30;53.20
8188;DHT22;4135;49.184;9.722;2022-11-15T15:55:44;19.30;53.20
8188;DHT22;4135;49.184;9.722;2022-11-15T15:58:14;19.30;53.10
8188;DHT22;4135;49.184;9.722;2022-11-15T16:00:43;19.30;53.10
8188;DHT22;4135;49.184;9.722;2022-11-15T16:03:13;19.20;52.90
8188;DHT22;4135;49.184;9.722;2022-11-15T16:05:43;19.20;52.80
8188;DHT22;4135;49.184;9.722;2022-11-15T16:08:23;19.20;52.70
8188;DHT22;4135;49.184;9.722;2022-11-15T16:10:53;19.20;52.60
8188;DHT22;4135;49.184;9.722;2022-11-15T16:13:23;19.20;52.50
8188;DHT22;4135;49.184;9.722;2022-11-15T16:15:53;19.10;52.40
8188;DHT22;4135;49.184;9.722;2022-11-15T16:18:23;19.10;52.50
8188;DHT22;4135;49.184;9.722;2022-11-15T16:20:53;19.10;52.30
8188;DHT22;4135;49.184;9.722;2022-11-15T16:23:25;19.10;52.20
8188;DHT22;4135;49.184;9.722;2022-11-15T16:25:55;19.00;51.90
8188;DHT22;4135;49.184;9.722;2022-11-15T16:28:30;19.00;52.00
8188;DHT22;4135;49.184;9.722;2022-11-15T16:31:05;19.00;52.00
8188;DHT22;4135;49.184;9.722;2022-11-15T16:33:37;19.00;51.90
8188;DHT22;4135;49.184;9.722;2022-11-15T16:36:23;19.00;51.90
8188;DHT22;4135;49.184;9.722;2022-11-15T16:38:52;18.90;51.80
8188;DHT22;4135;49.184;9.722;2022-11-15T16:41:22;18.90;51.80
8188;DHT22;4135;49.184;9.722;2022-11-15T16:43:52;18.90;51.80
8188;DHT22;4135;49.184;9.722;2022-11-15T16:46:23;18.90;51.80
8188;DHT22;4135;49.184;9.722;2022-11-15T16:48:53;18.80;51.70
8188;DHT22;4135;49.184;9.722;2022-11-15T16:51:23;18.80;51.90
8188;DHT22;4135;49.184;9.722;2022-11-15T16:53:52;18.80;52.00
8188;DHT22;4135;49.184;9.722;2022-11-15T16:56:26;18.80;52.30
8188;DHT22;4135;49.184;9.722;2022-11-15T16:58:57;18.90;52.60
8188;DHT22;4135;49.184;9.722;2022-11-15T17:01:28;18.90;52.60
8188;DHT22;4135;49.184;9.722;2022-11-15T17:03:58;19.00;52.70
8188;DHT22;4135;49.184;9.722;2022-11-15T17:06:28;19.00;52.70
8188;DHT22;4135;49.184;9.722;2022-11-15T17:08:57;19.00;52.70
8188;DHT22;4135;49.184;9.722;2022-11-15T17:11:27;19.00;52.70
8188;DHT22;4135;49.184;9.722;2022-11-15T17:13:57;19.00;52.70
8188;DHT22;4135;49.184;9.722;2022-11-15T17:16:27;19.00;52.80
8188;DHT22;4135;49.184;9.722;2022-11-15T17:18:57;19.00;52.90
8188;DHT22;4135;49.184;9.722;2022-11-15T17:21:26;19.00;52.90
8188;DHT22;4135;49.184;9.722;2022-11-15T17:23:58;19.00;52.90
8188;DHT22;4135;49.184;9.722;2022-11-15T17:26:28;19.00;52.90
8188;DHT22;4135;49.184;9.722;2022-11-15T17:28:57;19.00;53.00
8188;DHT22;4135;49.184;9.722;2022-11-15T17:31:29;19.00;53.00
8188;DHT22;4135;49.184;9.722;2022-11-15T17:34:03;19.00;53.00
8188;DHT22;4135;49.184;9.722;2022-11-15T17:36:34;19.10;53.20
8188;DHT22;4135;49.184;9.722;2022-11-15T17:39:04;19.00;53.10
8188;DHT22;4135;49.184;9.722;2022-11-15T17:41:33;19.00;53.10
8188;DHT22;4135;49.184;9.722;2022-11-15T17:44:03;19.00;53.20
8188;DHT22;4135;49.184;9.722;2022-11-15T17:46:33;19.00;53.20
8188;DHT22;4135;49.184;9.722;2022-11-15T17:49:04;19.00;53.20
8188;DHT22;4135;49.184;9.722;2022-11-15T17:51:34;19.00;53.20
8188;DHT22;4135;49.184;9.722;2022-11-15T17:54:03;19.00;53.20
8188;DHT22;4135;49.184;9.722;2022-11-15T17:56:38;19.00;53.20
8188;DHT22;4135;49.184;9.722;2022-11-15T17:59:08;19.00;53.20
8188;DHT22;4135;49.184;9.722;2022-11-15T18:01:38;19.00;53.30
8188;DHT22;4135;49.184;9.722;2022-11-15T18:04:08;19.00;53.30
8188;DHT22;4135;49.184;9.722;2022-11-15T18:06:39;19.00;53.30
8188;DHT22;4135;49.184;9.722;2022-11-15T18:09:08;19.00;53.30
8188;DHT22;4135;49.184;9.722;2022-11-15T18:11:40;19.00;53.30
8188;DHT22;4135;49.184;9.722;2022-11-15T18:14:13;19.00;53.40
8188;DHT22;4135;49.184;9.722;2022-11-15T18:16:43;19.00;53.30
8188;DHT22;4135;49.184;9.722;2022-11-15T18:19:12;19.00;53.30
8188;DHT22;4135;49.184;9.722;2022-11-15T18:21:44;19.00;53.30